sensor_id;sensor_type;location;lat;lon;timestamp;P1;durP1;ratioP1;P2;durP2;ratioP2
34711;SDS011;20941;42.408;25.634;2022-08-14T00:01:05;14.13;;;12.05;;
34711;SDS011;20941;42.408;25.634;2022-08-14T00:03:30;13.95;;;11.70;;
34711;SDS011;20941;42.408;25.634;2022-08-14T00:05:57;12.55;;;11.25;;
34711;SDS011;20941;42.408;25.634;2022-08-14T00:08:24;15.38;;;11.07;;
34711;SDS011;20941;42.408;25.634;2022-08-14T00:10:50;13.25;;;11.82;;
34711;SDS011;20941;42.408;25.634;2022-08-14T00:13:18;15.27;;;12.63;;
34711;SDS011;20941;42.408;25.634;2022-08-14T00:15:45;14.80;;;12.25;;
34711;SDS011;20941;42.408;25.634;2022-08-14T00:18:15;14.27;;;12.43;;
34711;SDS011;20941;42.408;25.634;2022-08-14T00:20:43;19.67;;;12.68;;
34711;SDS011;20941;42.408;25.634;2022-08-14T00:23:10;13.55;;;12.13;;
34711;SDS011;20941;42.408;25.634;2022-08-14T00:25:37;17.98;;;13.15;;
34711;SDS011;20941;42.408;25.634;2022-08-14T00:28:03;17.75;;;12.48;;
34711;SDS011;20941;42.408;25.634;2022-08-14T00:30:33;21.45;;;13.77;;
34711;SDS011;20941;42.408;25.634;2022-08-14T00:32:59;15.93;;;13.05;;
34711;SDS011;20941;42.408;25.634;2022-08-14T00:35:24;18.45;;;13.20;;
34711;SDS011;20941;42.408;25.634;2022-08-14T00:37:50;15.35;;;12.02;;
34711;SDS011;20941;42.408;25.634;2022-08-14T00:40:16;16.67;;;12.48;;
34711;SDS011;20941;42.408;25.634;2022-08-14T00:42:43;17.33;;;13.00;;
34711;SDS011;20941;42.408;25.634;2022-08-14T00:45:09;20.88;;;13.43;;
34711;SDS011;20941;42.408;25.634;2022-08-14T00:47:36;15.85;;;12.65;;
34711;SDS011;20941;42.408;25.634;2022-08-14T00:50:02;15.23;;;12.57;;
34711;SDS011;20941;42.408;25.634;2022-08-14T00:52:31;15.10;;;12.20;;
34711;SDS011;20941;42.408;25.634;2022-08-14T00:54:56;16.42;;;13.13;;
34711;SDS011;20941;42.408;25.634;2022-08-14T00:57:23;15.18;;;12.70;;
34711;SDS011;20941;42.408;25.634;2022-08-14T00:59:50;17.25;;;13.18;;
34711;SDS011;20941;42.408;25.634;2022-08-14T01:02:17;15.77;;;12.68;;
34711;SDS011;20941;42.408;25.634;2022-08-14T01:04:50;17.45;;;13.27;;
34711;SDS011;20941;42.408;25.634;2022-08-14T01:07:17;16.98;;;13.75;;
34711;SDS011;20941;42.408;25.634;2022-08-14T01:09:52;19.30;;;14.02;;
34711;SDS011;20941;42.408;25.634;2022-08-14T01:14:46;19.40;;;13.38;;
34711;SDS011;20941;42.408;25.634;2022-08-14T01:17:17;22.75;;;14.38;;
34711;SDS011;20941;42.408;25.634;2022-08-14T01:19:43;16.05;;;13.52;;
34711;SDS011;20941;42.408;25.634;2022-08-14T01:22:27;18.45;;;13.60;;
34711;SDS011;20941;42.408;25.634;2022-08-14T01:24:52;19.92;;;13.88;;
34711;SDS011;20941;42.408;25.634;2022-08-14T01:27:19;16.70;;;13.18;;
34711;SDS011;20941;42.408;25.634;2022-08-14T01:29:46;15.80;;;13.02;;
34711;SDS011;20941;42.408;25.634;2022-08-14T01:32:14;16.10;;;13.18;;
34711;SDS011;20941;42.408;25.634;2022-08-14T01:34:42;19.85;;;13.35;;
34711;SDS011;20941;42.408;25.634;2022-08-14T01:37:08;17.92;;;13.63;;
34711;SDS011;20941;42.408;25.634;2022-08-14T01:39:34;16.38;;;13.52;;
34711;SDS011;20941;42.408;25.634;2022-08-14T01:42:00;15.88;;;13.15;;
34711;SDS011;20941;42.408;25.634;2022-08-14T01:44:27;18.63;;;14.50;;
34711;SDS011;20941;42.408;25.634;2022-08-14T01:46:56;25.35;;;14.15;;
34711;SDS011;20941;42.408;25.634;2022-08-14T01:49:23;20.60;;;14.30;;
34711;SDS011;20941;42.408;25.634;2022-08-14T01:51:49;18.92;;;14.43;;
34711;SDS011;20941;42.408;25.634;2022-08-14T01:54:20;20.20;;;14.80;;
34711;SDS011;20941;42.408;25.634;2022-08-14T01:56:52;21.23;;;14.73;;
34711;SDS011;20941;42.408;25.634;2022-08-14T01:59:30;18.20;;;14.60;;
34711;SDS011;20941;42.408;25.634;2022-08-14T02:01:59;23.55;;;15.32;;
34711;SDS011;20941;42.408;25.634;2022-08-14T02:04:33;23.40;;;15.07;;
34711;SDS011;20941;42.408;25.634;2022-08-14T02:07:00;19.17;;;14.27;;
34711;SDS011;20941;42.408;25.634;2022-08-14T02:09:30;18.77;;;14.25;;
34711;SDS011;20941;42.408;25.634;2022-08-14T02:12:03;23.05;;;14.07;;
34711;SDS011;20941;42.408;25.634;2022-08-14T02:14:30;16.35;;;14.23;;
34711;SDS011;20941;42.408;25.634;2022-08-14T02:16:56;17.80;;;14.65;;
34711;SDS011;20941;42.408;25.634;2022-08-14T02:19:23;17.90;;;14.40;;
34711;SDS011;20941;42.408;25.634;2022-08-14T02:21:52;17.42;;;13.68;;
34711;SDS011;20941;42.408;25.634;2022-08-14T02:24:20;15.30;;;12.95;;
34711;SDS011;20941;42.408;25.634;2022-08-14T02:26:48;22.55;;;13.73;;
34711;SDS011;20941;42.408;25.634;2022-08-14T02:29:17;20.52;;;13.32;;
34711;SDS011;20941;42.408;25.634;2022-08-14T02:31:50;14.57;;;12.38;;
34711;SDS011;20941;42.408;25.634;2022-08-14T02:34:22;14.50;;;12.05;;
34711;SDS011;20941;42.408;25.634;2022-08-14T02:36:54;17.40;;;12.57;;
34711;SDS011;20941;42.408;25.634;2022-08-14T02:39:23;20.38;;;12.77;;
34711;SDS011;20941;42.408;25.634;2022-08-14T02:41:49;19.45;;;13.95;;
34711;SDS011;20941;42.408;25.634;2022-08-14T02:44:16;22.70;;;13.40;;
34711;SDS011;20941;42.408;25.634;2022-08-14T02:46:47;17.95;;;13.07;;
34711;SDS011;20941;42.408;25.634;2022-08-14T02:49:13;17.73;;;13.15;;
34711;SDS011;20941;42.408;25.634;2022-08-14T02:51:39;15.13;;;13.52;;
34711;SDS011;20941;42.408;25.634;2022-08-14T02:54:06;20.02;;;14.27;;
34711;SDS011;20941;42.408;25.634;2022-08-14T02:56:33;19.90;;;14.25;;
34711;SDS011;20941;42.408;25.634;2022-08-14T02:59:03;21.75;;;15.57;;
34711;SDS011;20941;42.408;25.634;2022-08-14T03:01:31;21.25;;;15.85;;
34711;SDS011;20941;42.408;25.634;2022-08-14T03:03:58;21.38;;;15.55;;
34711;SDS011;20941;42.408;25.634;2022-08-14T03:06:23;17.92;;;15.85;;
34711;SDS011;20941;42.408;25.634;2022-08-14T03:08:50;21.70;;;15.20;;
34711;SDS011;20941;42.408;25.634;2022-08-14T03:11:18;19.23;;;15.02;;
34711;SDS011;20941;42.408;25.634;2022-08-14T03:13:46;20.88;;;15.27;;
34711;SDS011;20941;42.408;25.634;2022-08-14T03:16:16;17.73;;;13.98;;
34711;SDS011;20941;42.408;25.634;2022-08-14T03:18:44;18.63;;;14.80;;
34711;SDS011;20941;42.408;25.634;2022-08-14T03:21:12;19.90;;;14.50;;
34711;SDS011;20941;42.408;25.634;2022-08-14T03:23:40;21.75;;;14.10;;
34711;SDS011;20941;42.408;25.634;2022-08-14T03:26:11;16.52;;;13.82;;
34711;SDS011;20941;42.408;25.634;2022-08-14T03:28:40;19.38;;;14.88;;
34711;SDS011;20941;42.408;25.634;2022-08-14T03:31:07;20.60;;;13.60;;
34711;SDS011;20941;42.408;25.634;2022-08-14T03:33:34;20.75;;;13.88;;
34711;SDS011;20941;42.408;25.634;2022-08-14T03:36:11;20.58;;;13.55;;
34711;SDS011;20941;42.408;25.634;2022-08-14T03:38:39;14.98;;;11.60;;
34711;SDS011;20941;42.408;25.634;2022-08-14T03:41:12;13.60;;;11.77;;
34711;SDS011;20941;42.408;25.634;2022-08-14T03:43:48;20.33;;;12.68;;
34711;SDS011;20941;42.408;25.634;2022-08-14T03:46:16;18.88;;;12.30;;
34711;SDS011;20941;42.408;25.634;2022-08-14T03:48:43;22.90;;;12.50;;
34711;SDS011;20941;42.408;25.634;2022-08-14T03:51:10;25.73;;;14.38;;
34711;SDS011;20941;42.408;25.634;2022-08-14T03:53:41;23.58;;;13.45;;
34711;SDS011;20941;42.408;25.634;2022-08-14T03:56:10;14.98;;;12.25;;
34711;SDS011;20941;42.408;25.634;2022-08-14T03:58:38;18.95;;;13.65;;
34711;SDS011;20941;42.408;25.634;2022-08-14T04:01:12;24.75;;;14.52;;
34711;SDS011;20941;42.408;25.634;2022-08-14T04:03:38;17.80;;;14.02;;
34711;SDS011;20941;42.408;25.634;2022-08-14T04:06:04;20.98;;;14.63;;
34711;SDS011;20941;42.408;25.634;2022-08-14T04:08:36;22.52;;;14.63;;
34711;SDS011;20941;42.408;25.634;2022-08-14T04:11:02;20.98;;;13.80;;
34711;SDS011;20941;42.408;25.634;2022-08-14T04:13:30;19.23;;;13.52;;
34711;SDS011;20941;42.408;25.634;2022-08-14T04:15:57;19.35;;;15.43;;
34711;SDS011;20941;42.408;25.634;2022-08-14T04:18:24;23.27;;;13.95;;
34711;SDS011;20941;42.408;25.634;2022-08-14T04:20:50;19.02;;;13.32;;
34711;SDS011;20941;42.408;25.634;2022-08-14T04:23:15;16.30;;;12.35;;
34711;SDS011;20941;42.408;25.634;2022-08-14T04:25:43;16.35;;;12.25;;
34711;SDS011;20941;42.408;25.634;2022-08-14T04:28:11;16.00;;;12.48;;
34711;SDS011;20941;42.408;25.634;2022-08-14T04:30:39;15.70;;;12.07;;
34711;SDS011;20941;42.408;25.634;2022-08-14T04:33:05;13.85;;;12.27;;
34711;SDS011;20941;42.408;25.634;2022-08-14T04:35:32;15.00;;;11.70;;
34711;SDS011;20941;42.408;25.634;2022-08-14T04:37:59;17.73;;;11.63;;
34711;SDS011;20941;42.408;25.634;2022-08-14T04:40:43;19.13;;;12.23;;
34711;SDS011;20941;42.408;25.634;2022-08-14T04:43:27;20.25;;;12.75;;
34711;SDS011;20941;42.408;25.634;2022-08-14T04:48:34;19.55;;;12.55;;
34711;SDS011;20941;42.408;25.634;2022-08-14T04:51:01;25.90;;;12.52;;
34711;SDS011;20941;42.408;25.634;2022-08-14T04:53:30;23.05;;;12.70;;
34711;SDS011;20941;42.408;25.634;2022-08-14T04:55:57;19.40;;;12.73;;
34711;SDS011;20941;42.408;25.634;2022-08-14T04:58:25;18.33;;;12.80;;
34711;SDS011;20941;42.408;25.634;2022-08-14T05:00:53;18.27;;;13.05;;
34711;SDS011;20941;42.408;25.634;2022-08-14T05:03:21;29.20;;;13.48;;
34711;SDS011;20941;42.408;25.634;2022-08-14T05:05:48;20.00;;;12.05;;
34711;SDS011;20941;42.408;25.634;2022-08-14T05:08:19;14.10;;;12.60;;
34711;SDS011;20941;42.408;25.634;2022-08-14T05:10:45;16.23;;;11.98;;
34711;SDS011;20941;42.408;25.634;2022-08-14T05:13:16;18.30;;;12.50;;
34711;SDS011;20941;42.408;25.634;2022-08-14T05:15:45;15.05;;;11.90;;
34711;SDS011;20941;42.408;25.634;2022-08-14T05:18:14;15.98;;;12.13;;
34711;SDS011;20941;42.408;25.634;2022-08-14T05:20:41;12.30;;;11.00;;
34711;SDS011;20941;42.408;25.634;2022-08-14T05:23:13;12.32;;;10.10;;
34711;SDS011;20941;42.408;25.634;2022-08-14T05:25:44;13.45;;;11.02;;
34711;SDS011;20941;42.408;25.634;2022-08-14T05:28:18;21.48;;;11.50;;
34711;SDS011;20941;42.408;25.634;2022-08-14T05:30:53;13.23;;;10.18;;
34711;SDS011;20941;42.408;25.634;2022-08-14T05:33:21;18.38;;;10.95;;
34711;SDS011;20941;42.408;25.634;2022-08-14T05:35:48;12.45;;;10.65;;
34711;SDS011;20941;42.408;25.634;2022-08-14T05:38:16;15.48;;;10.60;;
34711;SDS011;20941;42.408;25.634;2022-08-14T05:40:44;16.70;;;10.57;;
34711;SDS011;20941;42.408;25.634;2022-08-14T05:43:11;16.95;;;11.40;;
34711;SDS011;20941;42.408;25.634;2022-08-14T05:45:38;15.02;;;10.25;;
34711;SDS011;20941;42.408;25.634;2022-08-14T05:48:05;17.40;;;11.05;;
34711;SDS011;20941;42.408;25.634;2022-08-14T05:50:31;18.08;;;11.02;;
34711;SDS011;20941;42.408;25.634;2022-08-14T05:52:57;15.27;;;10.45;;
34711;SDS011;20941;42.408;25.634;2022-08-14T05:55:23;29.60;;;11.20;;
34711;SDS011;20941;42.408;25.634;2022-08-14T05:57:50;12.93;;;10.18;;
34711;SDS011;20941;42.408;25.634;2022-08-14T06:00:21;16.02;;;10.65;;
34711;SDS011;20941;42.408;25.634;2022-08-14T06:02:49;14.05;;;10.05;;
34711;SDS011;20941;42.408;25.634;2022-08-14T06:05:14;15.20;;;10.73;;
34711;SDS011;20941;42.408;25.634;2022-08-14T06:07:40;13.93;;;10.00;;
34711;SDS011;20941;42.408;25.634;2022-08-14T06:10:07;14.88;;;9.90;;
34711;SDS011;20941;42.408;25.634;2022-08-14T06:12:33;10.63;;;9.02;;
34711;SDS011;20941;42.408;25.634;2022-08-14T06:14:59;15.20;;;9.20;;
34711;SDS011;20941;42.408;25.634;2022-08-14T06:17:25;13.80;;;9.82;;
34711;SDS011;20941;42.408;25.634;2022-08-14T06:19:51;19.63;;;10.65;;
34711;SDS011;20941;42.408;25.634;2022-08-14T06:22:16;13.52;;;9.60;;
34711;SDS011;20941;42.408;25.634;2022-08-14T06:24:42;11.32;;;9.18;;
34711;SDS011;20941;42.408;25.634;2022-08-14T06:27:08;15.48;;;9.80;;
34711;SDS011;20941;42.408;25.634;2022-08-14T06:29:33;12.88;;;9.27;;
34711;SDS011;20941;42.408;25.634;2022-08-14T06:31:59;10.85;;;9.23;;
34711;SDS011;20941;42.408;25.634;2022-08-14T06:34:24;10.50;;;8.63;;
34711;SDS011;20941;42.408;25.634;2022-08-14T06:36:50;11.30;;;9.68;;
34711;SDS011;20941;42.408;25.634;2022-08-14T06:39:15;10.38;;;9.32;;
34711;SDS011;20941;42.408;25.634;2022-08-14T06:41:41;11.55;;;9.30;;
34711;SDS011;20941;42.408;25.634;2022-08-14T06:44:09;26.35;;;10.45;;
34711;SDS011;20941;42.408;25.634;2022-08-14T06:46:35;16.35;;;9.15;;
34711;SDS011;20941;42.408;25.634;2022-08-14T06:49:01;15.73;;;8.70;;
34711;SDS011;20941;42.408;25.634;2022-08-14T06:51:26;21.70;;;9.07;;
34711;SDS011;20941;42.408;25.634;2022-08-14T06:53:52;10.60;;;9.07;;
34711;SDS011;20941;42.408;25.634;2022-08-14T06:56:17;10.32;;;8.57;;
34711;SDS011;20941;42.408;25.634;2022-08-14T06:58:43;23.30;;;10.65;;
34711;SDS011;20941;42.408;25.634;2022-08-14T07:01:09;18.50;;;9.32;;
34711;SDS011;20941;42.408;25.634;2022-08-14T07:03:53;13.10;;;9.10;;
34711;SDS011;20941;42.408;25.634;2022-08-14T07:06:38;13.00;;;8.88;;
34711;SDS011;20941;42.408;25.634;2022-08-14T07:09:03;18.02;;;9.57;;
34711;SDS011;20941;42.408;25.634;2022-08-14T07:11:29;10.63;;;9.35;;
34711;SDS011;20941;42.408;25.634;2022-08-14T07:13:54;14.88;;;9.50;;
34711;SDS011;20941;42.408;25.634;2022-08-14T07:16:20;16.00;;;9.25;;
34711;SDS011;20941;42.408;25.634;2022-08-14T07:18:46;19.48;;;9.52;;
34711;SDS011;20941;42.408;25.634;2022-08-14T07:21:12;13.95;;;9.18;;
34711;SDS011;20941;42.408;25.634;2022-08-14T07:23:38;16.73;;;8.73;;
34711;SDS011;20941;42.408;25.634;2022-08-14T07:26:04;10.35;;;8.35;;
34711;SDS011;20941;42.408;25.634;2022-08-14T07:28:31;17.65;;;9.40;;
34711;SDS011;20941;42.408;25.634;2022-08-14T07:31:00;13.82;;;8.45;;
34711;SDS011;20941;42.408;25.634;2022-08-14T07:33:28;10.68;;;8.57;;
34711;SDS011;20941;42.408;25.634;2022-08-14T07:35:56;11.95;;;8.15;;
34711;SDS011;20941;42.408;25.634;2022-08-14T07:38:24;12.70;;;8.35;;
34711;SDS011;20941;42.408;25.634;2022-08-14T07:40:51;15.55;;;8.32;;
34711;SDS011;20941;42.408;25.634;2022-08-14T07:43:17;9.40;;;8.10;;
34711;SDS011;20941;42.408;25.634;2022-08-14T07:45:43;21.20;;;9.30;;
34711;SDS011;20941;42.408;25.634;2022-08-14T07:48:08;11.60;;;8.40;;
34711;SDS011;20941;42.408;25.634;2022-08-14T07:50:35;8.48;;;7.68;;
34711;SDS011;20941;42.408;25.634;2022-08-14T07:53:01;9.88;;;8.52;;
34711;SDS011;20941;42.408;25.634;2022-08-14T07:55:27;13.60;;;8.13;;
34711;SDS011;20941;42.408;25.634;2022-08-14T07:57:53;13.98;;;9.05;;
34711;SDS011;20941;42.408;25.634;2022-08-14T08:00:20;10.90;;;8.25;;
34711;SDS011;20941;42.408;25.634;2022-08-14T08:02:47;16.55;;;9.32;;
34711;SDS011;20941;42.408;25.634;2022-08-14T08:05:16;12.95;;;8.70;;
34711;SDS011;20941;42.408;25.634;2022-08-14T08:07:43;11.13;;;8.07;;
34711;SDS011;20941;42.408;25.634;2022-08-14T08:10:14;8.88;;;7.97;;
34711;SDS011;20941;42.408;25.634;2022-08-14T08:13:08;11.07;;;8.55;;
34711;SDS011;20941;42.408;25.634;2022-08-14T08:15:40;9.40;;;8.50;;
34711;SDS011;20941;42.408;25.634;2022-08-14T08:18:08;8.98;;;8.13;;
34711;SDS011;20941;42.408;25.634;2022-08-14T08:20:36;10.18;;;8.90;;
34711;SDS011;20941;42.408;25.634;2022-08-14T08:23:04;13.05;;;8.70;;
34711;SDS011;20941;42.408;25.634;2022-08-14T08:25:32;17.92;;;8.35;;
34711;SDS011;20941;42.408;25.634;2022-08-14T08:30:46;13.77;;;8.70;;
34711;SDS011;20941;42.408;25.634;2022-08-14T08:33:13;11.57;;;7.72;;
34711;SDS011;20941;42.408;25.634;2022-08-14T08:35:41;8.82;;;7.78;;
34711;SDS011;20941;42.408;25.634;2022-08-14T08:38:09;9.77;;;8.45;;
34711;SDS011;20941;42.408;25.634;2022-08-14T08:40:40;12.77;;;8.77;;
34711;SDS011;20941;42.408;25.634;2022-08-14T08:43:07;13.00;;;8.80;;
34711;SDS011;20941;42.408;25.634;2022-08-14T08:45:51;12.40;;;9.02;;
34711;SDS011;20941;42.408;25.634;2022-08-14T08:48:19;18.30;;;9.60;;
34711;SDS011;20941;42.408;25.634;2022-08-14T08:50:48;13.60;;;8.95;;
34711;SDS011;20941;42.408;25.634;2022-08-14T08:53:14;10.57;;;8.60;;
34711;SDS011;20941;42.408;25.634;2022-08-14T08:55:40;20.00;;;8.77;;
34711;SDS011;20941;42.408;25.634;2022-08-14T08:58:12;9.02;;;7.50;;
34711;SDS011;20941;42.408;25.634;2022-08-14T09:00:41;14.80;;;8.80;;
34711;SDS011;20941;42.408;25.634;2022-08-14T09:03:10;12.82;;;9.40;;
34711;SDS011;20941;42.408;25.634;2022-08-14T09:05:54;10.45;;;9.30;;
34711;SDS011;20941;42.408;25.634;2022-08-14T09:08:29;22.25;;;10.00;;
34711;SDS011;20941;42.408;25.634;2022-08-14T09:10:56;15.93;;;9.20;;
34711;SDS011;20941;42.408;25.634;2022-08-14T09:13:23;10.70;;;9.07;;
34711;SDS011;20941;42.408;25.634;2022-08-14T09:15:50;12.20;;;9.80;;
34711;SDS011;20941;42.408;25.634;2022-08-14T09:18:18;17.77;;;9.10;;
34711;SDS011;20941;42.408;25.634;2022-08-14T09:20:46;15.77;;;9.25;;
34711;SDS011;20941;42.408;25.634;2022-08-14T09:23:13;10.20;;;8.48;;
34711;SDS011;20941;42.408;25.634;2022-08-14T09:25:41;10.90;;;8.98;;
34711;SDS011;20941;42.408;25.634;2022-08-14T09:28:08;15.38;;;9.18;;
34711;SDS011;20941;42.408;25.634;2022-08-14T09:30:36;19.98;;;9.55;;
34711;SDS011;20941;42.408;25.634;2022-08-14T09:38:16;10.00;;;9.00;;
34711;SDS011;20941;42.408;25.634;2022-08-14T09:41:09;15.88;;;8.93;;
34711;SDS011;20941;42.408;25.634;2022-08-14T09:46:54;12.45;;;8.65;;
34711;SDS011;20941;42.408;25.634;2022-08-14T09:49:34;11.90;;;8.63;;
34711;SDS011;20941;42.408;25.634;2022-08-14T09:52:05;9.43;;;8.52;;
34711;SDS011;20941;42.408;25.634;2022-08-14T09:54:45;12.43;;;8.73;;
34711;SDS011;20941;42.408;25.634;2022-08-14T09:57:32;9.77;;;8.77;;
34711;SDS011;20941;42.408;25.634;2022-08-14T09:59:57;9.55;;;8.65;;
34711;SDS011;20941;42.408;25.634;2022-08-14T10:02:33;11.80;;;8.43;;
34711;SDS011;20941;42.408;25.634;2022-08-14T10:05:03;14.20;;;8.20;;
34711;SDS011;20941;42.408;25.634;2022-08-14T10:07:34;10.10;;;7.32;;
34711;SDS011;20941;42.408;25.634;2022-08-14T10:10:25;10.80;;;7.32;;
34711;SDS011;20941;42.408;25.634;2022-08-14T10:12:59;14.32;;;8.38;;
34711;SDS011;20941;42.408;25.634;2022-08-14T10:15:27;9.18;;;8.32;;
34711;SDS011;20941;42.408;25.634;2022-08-14T10:18:04;13.68;;;8.60;;
34711;SDS011;20941;42.408;25.634;2022-08-14T10:20:33;10.65;;;8.68;;
34711;SDS011;20941;42.408;25.634;2022-08-14T10:23:16;11.63;;;8.52;;
34711;SDS011;20941;42.408;25.634;2022-08-14T10:25:50;13.88;;;8.65;;
34711;SDS011;20941;42.408;25.634;2022-08-14T10:28:18;10.00;;;8.38;;
34711;SDS011;20941;42.408;25.634;2022-08-14T10:30:46;13.38;;;7.95;;
34711;SDS011;20941;42.408;25.634;2022-08-14T10:33:30;10.80;;;8.27;;
34711;SDS011;20941;42.408;25.634;2022-08-14T10:35:57;18.15;;;8.25;;
34711;SDS011;20941;42.408;25.634;2022-08-14T10:38:30;12.73;;;8.30;;
34711;SDS011;20941;42.408;25.634;2022-08-14T10:41:10;9.88;;;8.55;;
34711;SDS011;20941;42.408;25.634;2022-08-14T10:43:37;12.70;;;8.05;;
34711;SDS011;20941;42.408;25.634;2022-08-14T10:46:10;9.20;;;7.45;;
34711;SDS011;20941;42.408;25.634;2022-08-14T10:48:37;9.65;;;7.82;;
34711;SDS011;20941;42.408;25.634;2022-08-14T10:51:03;9.52;;;7.53;;
34711;SDS011;20941;42.408;25.634;2022-08-14T10:53:32;7.97;;;7.15;;
34711;SDS011;20941;42.408;25.634;2022-08-14T10:55:59;9.00;;;8.07;;
34711;SDS011;20941;42.408;25.634;2022-08-14T10:58:28;11.07;;;6.57;;
34711;SDS011;20941;42.408;25.634;2022-08-14T11:00:57;12.32;;;7.65;;
34711;SDS011;20941;42.408;25.634;2022-08-14T11:03:24;9.85;;;8.07;;
34711;SDS011;20941;42.408;25.634;2022-08-14T11:06:10;10.98;;;7.97;;
34711;SDS011;20941;42.408;25.634;2022-08-14T11:08:42;13.07;;;8.23;;
34711;SDS011;20941;42.408;25.634;2022-08-14T11:11:07;22.05;;;8.40;;
34711;SDS011;20941;42.408;25.634;2022-08-14T11:13:33;11.05;;;8.45;;
34711;SDS011;20941;42.408;25.634;2022-08-14T11:15:59;17.00;;;9.35;;
34711;SDS011;20941;42.408;25.634;2022-08-14T11:18:26;12.45;;;9.27;;
34711;SDS011;20941;42.408;25.634;2022-08-14T11:20:54;14.45;;;9.27;;
34711;SDS011;20941;42.408;25.634;2022-08-14T11:23:24;14.60;;;8.13;;
34711;SDS011;20941;42.408;25.634;2022-08-14T11:25:52;8.95;;;7.85;;
34711;SDS011;20941;42.408;25.634;2022-08-14T11:28:21;5.97;;;5.07;;
34711;SDS011;20941;42.408;25.634;2022-08-14T11:30:48;8.07;;;5.55;;
34711;SDS011;20941;42.408;25.634;2022-08-14T11:33:15;18.45;;;8.65;;
34711;SDS011;20941;42.408;25.634;2022-08-14T11:35:47;11.10;;;7.60;;
34711;SDS011;20941;42.408;25.634;2022-08-14T11:38:13;11.30;;;8.23;;
34711;SDS011;20941;42.408;25.634;2022-08-14T11:40:39;9.40;;;8.30;;
34711;SDS011;20941;42.408;25.634;2022-08-14T11:43:07;8.63;;;7.43;;
34711;SDS011;20941;42.408;25.634;2022-08-14T11:45:35;6.75;;;6.00;;
34711;SDS011;20941;42.408;25.634;2022-08-14T11:48:24;10.88;;;8.10;;
34711;SDS011;20941;42.408;25.634;2022-08-14T11:50:49;9.65;;;6.43;;
34711;SDS011;20941;42.408;25.634;2022-08-14T11:53:28;13.75;;;8.75;;
34711;SDS011;20941;42.408;25.634;2022-08-14T11:55:59;29.63;;;10.65;;
34711;SDS011;20941;42.408;25.634;2022-08-14T11:58:27;16.75;;;9.48;;
34711;SDS011;20941;42.408;25.634;2022-08-14T12:00:55;9.70;;;7.90;;
34711;SDS011;20941;42.408;25.634;2022-08-14T12:03:33;12.20;;;8.65;;
34711;SDS011;20941;42.408;25.634;2022-08-14T12:06:07;14.70;;;9.98;;
34711;SDS011;20941;42.408;25.634;2022-08-14T12:08:35;20.25;;;10.95;;
34711;SDS011;20941;42.408;25.634;2022-08-14T12:11:02;12.30;;;9.70;;
34711;SDS011;20941;42.408;25.634;2022-08-14T12:13:29;10.52;;;8.40;;
34711;SDS011;20941;42.408;25.634;2022-08-14T12:16:02;11.35;;;10.15;;
34711;SDS011;20941;42.408;25.634;2022-08-14T12:18:41;13.80;;;10.48;;
34711;SDS011;20941;42.408;25.634;2022-08-14T12:21:18;12.40;;;9.98;;
34711;SDS011;20941;42.408;25.634;2022-08-14T12:23:46;10.73;;;9.63;;
34711;SDS011;20941;42.408;25.634;2022-08-14T12:26:25;12.32;;;9.98;;
34711;SDS011;20941;42.408;25.634;2022-08-14T12:29:03;10.43;;;8.32;;
34711;SDS011;20941;42.408;25.634;2022-08-14T12:31:32;10.82;;;8.65;;
34711;SDS011;20941;42.408;25.634;2022-08-14T12:33:59;11.27;;;9.65;;
34711;SDS011;20941;42.408;25.634;2022-08-14T12:36:27;11.48;;;9.45;;
34711;SDS011;20941;42.408;25.634;2022-08-14T12:38:57;12.73;;;9.43;;
34711;SDS011;20941;42.408;25.634;2022-08-14T12:41:25;13.30;;;10.07;;
34711;SDS011;20941;42.408;25.634;2022-08-14T12:43:58;11.48;;;8.88;;
34711;SDS011;20941;42.408;25.634;2022-08-14T12:48:59;11.90;;;9.95;;
34711;SDS011;20941;42.408;25.634;2022-08-14T12:51:32;10.25;;;9.15;;
34711;SDS011;20941;42.408;25.634;2022-08-14T12:53:58;17.30;;;9.80;;
34711;SDS011;20941;42.408;25.634;2022-08-14T12:56:24;14.25;;;9.05;;
34711;SDS011;20941;42.408;25.634;2022-08-14T12:58:52;10.50;;;9.40;;
34711;SDS011;20941;42.408;25.634;2022-08-14T13:01:21;9.38;;;8.38;;
34711;SDS011;20941;42.408;25.634;2022-08-14T13:04:00;8.57;;;6.88;;
34711;SDS011;20941;42.408;25.634;2022-08-14T13:06:29;9.70;;;8.57;;
34711;SDS011;20941;42.408;25.634;2022-08-14T13:08:55;10.90;;;8.88;;
34711;SDS011;20941;42.408;25.634;2022-08-14T13:11:20;13.05;;;8.98;;
34711;SDS011;20941;42.408;25.634;2022-08-14T13:13:49;11.20;;;8.68;;
34711;SDS011;20941;42.408;25.634;2022-08-14T13:16:21;12.90;;;10.68;;
34711;SDS011;20941;42.408;25.634;2022-08-14T13:18:47;9.65;;;8.65;;
34711;SDS011;20941;42.408;25.634;2022-08-14T13:21:14;9.65;;;8.57;;
34711;SDS011;20941;42.408;25.634;2022-08-14T13:23:41;9.02;;;7.90;;
34711;SDS011;20941;42.408;25.634;2022-08-14T13:26:08;9.43;;;7.28;;
34711;SDS011;20941;42.408;25.634;2022-08-14T13:28:35;12.57;;;7.82;;
34711;SDS011;20941;42.408;25.634;2022-08-14T13:31:04;9.52;;;7.60;;
34711;SDS011;20941;42.408;25.634;2022-08-14T13:33:32;9.18;;;7.07;;
34711;SDS011;20941;42.408;25.634;2022-08-14T13:36:00;7.47;;;6.68;;
34711;SDS011;20941;42.408;25.634;2022-08-14T13:38:26;10.30;;;7.30;;
34711;SDS011;20941;42.408;25.634;2022-08-14T13:40:55;10.63;;;6.82;;
34711;SDS011;20941;42.408;25.634;2022-08-14T13:43:22;13.48;;;8.23;;
34711;SDS011;20941;42.408;25.634;2022-08-14T13:45:48;6.93;;;6.22;;
34711;SDS011;20941;42.408;25.634;2022-08-14T13:48:20;10.68;;;8.23;;
34711;SDS011;20941;42.408;25.634;2022-08-14T13:50:51;10.02;;;8.20;;
34711;SDS011;20941;42.408;25.634;2022-08-14T13:53:19;14.23;;;9.27;;
34711;SDS011;20941;42.408;25.634;2022-08-14T13:55:47;12.65;;;9.45;;
34711;SDS011;20941;42.408;25.634;2022-08-14T13:58:15;13.40;;;8.93;;
34711;SDS011;20941;42.408;25.634;2022-08-14T14:00:43;12.45;;;9.95;;
34711;SDS011;20941;42.408;25.634;2022-08-14T14:03:11;18.88;;;10.95;;
34711;SDS011;20941;42.408;25.634;2022-08-14T14:05:37;19.08;;;11.35;;
34711;SDS011;20941;42.408;25.634;2022-08-14T14:08:04;19.10;;;11.95;;
34711;SDS011;20941;42.408;25.634;2022-08-14T14:10:31;34.35;;;14.20;;
34711;SDS011;20941;42.408;25.634;2022-08-14T14:13:00;42.58;;;17.02;;
34711;SDS011;20941;42.408;25.634;2022-08-14T14:15:26;27.75;;;14.10;;
34711;SDS011;20941;42.408;25.634;2022-08-14T14:17:52;29.10;;;14.85;;
34711;SDS011;20941;42.408;25.634;2022-08-14T14:20:18;29.80;;;15.95;;
34711;SDS011;20941;42.408;25.634;2022-08-14T14:43:22;24.83;;;15.32;;
34711;SDS011;20941;42.408;25.634;2022-08-14T14:46:34;23.00;;;15.02;;
34711;SDS011;20941;42.408;25.634;2022-08-14T14:49:42;19.83;;;12.95;;
34711;SDS011;20941;42.408;25.634;2022-08-14T14:52:36;22.02;;;15.23;;
34711;SDS011;20941;42.408;25.634;2022-08-14T14:55:04;22.63;;;14.45;;
34711;SDS011;20941;42.408;25.634;2022-08-14T14:57:53;19.00;;;14.80;;
34711;SDS011;20941;42.408;25.634;2022-08-14T15:00:20;24.27;;;15.93;;
34711;SDS011;20941;42.408;25.634;2022-08-14T15:02:48;22.83;;;15.63;;
34711;SDS011;20941;42.408;25.634;2022-08-14T15:05:38;18.95;;;14.82;;
34711;SDS011;20941;42.408;25.634;2022-08-14T15:08:15;11.93;;;9.85;;